createdAt,value
2022-12-08T00:01:20.887Z,7.53
2022-12-08T00:03:48.123Z,6.57
2022-12-08T00:06:51.650Z,6.33
2022-12-08T00:09:36.359Z,6.90
2022-12-08T00:12:09.783Z,6.50
2022-12-08T00:14:41.892Z,5.07
2022-12-08T00:17:10.041Z,5.60
2022-12-08T00:19:37.047Z,5.20
2022-12-08T00:22:04.406Z,5.87
2022-12-08T00:24:32.864Z,4.57
2022-12-08T00:26:59.369Z,4.23
2022-12-08T00:29:26.034Z,3.83
2022-12-08T00:31:52.662Z,3.30
2022-12-08T00:34:19.533Z,3.33
2022-12-08T00:36:45.994Z,2.80
2022-12-08T00:39:13.391Z,2.70
2022-12-08T00:41:58.887Z,2.50
2022-12-08T00:44:25.464Z,3.20
2022-12-08T00:46:51.889Z,2.60
2022-12-08T00:49:18.604Z,3.20
2022-12-08T00:51:45.287Z,3.00
2022-12-08T00:54:12.087Z,3.23
2022-12-08T00:56:38.951Z,3.20
2022-12-08T00:59:06.446Z,2.50
2022-12-08T01:01:34.245Z,2.40
2022-12-08T01:04:05.166Z,2.40
2022-12-08T01:06:31.691Z,2.57
2022-12-08T01:08:58.269Z,2.83
2022-12-08T01:11:24.696Z,2.47
2022-12-08T01:13:51.118Z,2.47
2022-12-08T01:16:29.254Z,3.30
2022-12-08T01:18:57.526Z,2.53
2022-12-08T01:21:24.008Z,2.97
2022-12-08T01:23:50.585Z,2.30
2022-12-08T01:26:18.252Z,2.93
2022-12-08T01:28:44.955Z,3.03
2022-12-08T01:31:13.536Z,2.60
2022-12-08T01:33:40.463Z,3.00
2022-12-08T01:36:07.585Z,2.83
2022-12-08T01:38:35.038Z,2.70
2022-12-08T01:41:01.624Z,2.93
2022-12-08T01:43:51.153Z,2.60
2022-12-08T01:46:17.713Z,2.40
2022-12-08T01:48:44.159Z,2.50
2022-12-08T01:51:10.584Z,2.50
2022-12-08T01:53:37.171Z,3.00
2022-12-08T01:56:07.292Z,3.10
2022-12-08T01:58:36.920Z,2.50
2022-12-08T02:01:03.894Z,2.80
2022-12-08T02:03:41.125Z,2.57
2022-12-08T02:06:07.946Z,2.40
2022-12-08T02:08:36.232Z,2.50
2022-12-08T02:11:02.676Z,2.50
2022-12-08T02:13:29.234Z,2.73
2022-12-08T02:16:05.071Z,2.53
2022-12-08T02:19:22.392Z,2.83
2022-12-08T02:21:52.044Z,3.30
2022-12-08T02:24:39.996Z,3.73
2022-12-08T02:27:18.071Z,3.10
2022-12-08T02:30:02.942Z,3.37
2022-12-08T02:33:02.195Z,3.30
2022-12-08T02:35:50.232Z,3.30
2022-12-08T02:38:35.611Z,2.87
2022-12-08T02:41:13.338Z,3.37
2022-12-08T02:43:47.620Z,3.23
2022-12-08T02:46:19.359Z,3.40
2022-12-08T02:48:45.910Z,3.43
2022-12-08T02:51:12.330Z,3.10
2022-12-08T02:53:38.999Z,2.93
2022-12-08T02:56:38.544Z,3.83
2022-12-08T02:59:44.944Z,3.50
2022-12-08T03:02:31.492Z,3.63
2022-12-08T03:05:27.547Z,3.60
2022-12-08T03:08:03.168Z,3.70
2022-12-08T03:10:35.070Z,4.47
2022-12-08T03:13:06.642Z,4.33
2022-12-08T03:15:35.561Z,3.70
2022-12-08T03:18:04.077Z,4.03
2022-12-08T03:20:31.220Z,4.10
2022-12-08T03:22:59.828Z,4.00
2022-12-08T03:25:28.134Z,4.53
2022-12-08T03:27:54.661Z,3.73
2022-12-08T03:30:21.512Z,4.17
2022-12-08T03:32:53.329Z,4.40
2022-12-08T03:35:39.561Z,4.30
2022-12-08T03:38:09.011Z,4.40
2022-12-08T03:40:35.661Z,4.03
2022-12-08T03:43:02.218Z,4.20
2022-12-08T03:45:29.150Z,4.50
2022-12-08T03:47:55.916Z,4.73
2022-12-08T03:50:22.512Z,5.27
2022-12-08T03:52:49.070Z,5.30
2022-12-08T03:55:15.951Z,5.03
2022-12-08T03:57:42.857Z,5.50
2022-12-08T04:00:14.713Z,5.17
2022-12-08T04:02:41.168Z,5.80
2022-12-08T04:05:07.926Z,5.80
2022-12-08T04:07:35.216Z,5.83
2022-12-08T04:10:02.005Z,6.20
2022-12-08T04:12:28.725Z,6.67
2022-12-08T04:14:55.283Z,5.23
2022-12-08T04:17:21.710Z,6.23
2022-12-08T04:19:48.208Z,7.10
2022-12-08T04:22:14.644Z,6.33
2022-12-08T04:24:41.139Z,6.23
2022-12-08T04:27:07.547Z,6.87
2022-12-08T04:29:34.151Z,6.67
2022-12-08T04:32:00.624Z,7.40
2022-12-08T04:34:27.066Z,7.03
2022-12-08T04:36:53.556Z,6.53
2022-12-08T04:39:20.089Z,6.47
2022-12-08T04:41:46.513Z,7.43
2022-12-08T04:44:13.007Z,7.53
2022-12-08T04:46:43.315Z,7.70
2022-12-08T04:49:10.155Z,7.70
2022-12-08T04:51:36.668Z,7.40
2022-12-08T04:54:03.213Z,8.17
2022-12-08T04:56:29.689Z,7.73
2022-12-08T04:58:56.308Z,7.73
2022-12-08T05:01:22.912Z,8.00
2022-12-08T05:03:49.516Z,7.40
2022-12-08T05:06:16.062Z,7.40
2022-12-08T05:08:43.388Z,6.83
2022-12-08T05:11:11.874Z,7.43
2022-12-08T05:13:38.323Z,7.87
2022-12-08T05:16:12.951Z,7.53
2022-12-08T05:18:39.907Z,7.10
2022-12-08T05:21:06.571Z,7.83
2022-12-08T05:23:33.871Z,7.73
2022-12-08T05:26:01.056Z,8.27
2022-12-08T05:28:44.093Z,8.17
2022-12-08T05:31:15.437Z,7.97
2022-12-08T05:33:42.623Z,7.57
2022-12-08T05:36:10.325Z,8.87
2022-12-08T05:38:36.832Z,8.63
2022-12-08T05:41:04.109Z,8.47
2022-12-08T05:43:30.695Z,8.10
2022-12-08T05:45:57.334Z,8.77
2022-12-08T05:48:23.791Z,8.67
2022-12-08T05:50:50.733Z,8.13
2022-12-08T05:53:18.804Z,8.13
2022-12-08T05:55:46.040Z,8.13
2022-12-08T05:58:14.570Z,8.27
2022-12-08T06:00:41.925Z,8.80
2022-12-08T06:03:09.020Z,8.57
2022-12-08T06:05:35.696Z,8.27
2022-12-08T06:08:02.240Z,9.03
2022-12-08T06:10:28.996Z,9.50
2022-12-08T06:12:55.568Z,9.67
2022-12-08T06:15:22.394Z,8.70
2022-12-08T06:17:48.880Z,9.17
2022-12-08T06:20:15.544Z,9.60
2022-12-08T06:22:42.282Z,8.53
2022-12-08T06:25:10.237Z,8.80
2022-12-08T06:27:37.018Z,8.50
2022-12-08T06:30:04.533Z,8.90
2022-12-08T06:32:31.344Z,8.77
2022-12-08T06:34:57.896Z,8.83
2022-12-08T06:37:24.427Z,8.60
2022-12-08T06:39:51.775Z,8.27
2022-12-08T06:42:37.088Z,8.67
2022-12-08T06:45:04.056Z,9.07
2022-12-08T06:47:30.756Z,8.10
2022-12-08T06:49:57.438Z,7.90
2022-12-08T06:52:24.081Z,8.43
2022-12-08T06:54:50.888Z,8.23
2022-12-08T06:57:18.655Z,7.37
2022-12-08T06:59:45.088Z,8.30
2022-12-08T07:02:11.734Z,8.07
2022-12-08T07:04:38.528Z,7.77
2022-12-08T07:07:05.208Z,8.20
2022-12-08T07:09:31.854Z,8.47
2022-12-08T07:11:58.498Z,8.83
2022-12-08T07:14:25.356Z,9.10
2022-12-08T07:16:52.234Z,8.23
2022-12-08T07:19:19.126Z,8.33
2022-12-08T07:21:46.127Z,8.63
2022-12-08T07:24:13.090Z,8.13
2022-12-08T07:26:40.052Z,8.60
2022-12-08T07:29:06.899Z,9.10
2022-12-08T07:31:33.942Z,9.10
2022-12-08T07:34:00.594Z,8.83
2022-12-08T07:36:27.643Z,9.10
2022-12-08T07:38:54.398Z,9.23
2022-12-08T07:41:23.571Z,8.87
2022-12-08T07:43:50.792Z,8.27
2022-12-08T07:46:20.271Z,9.07
2022-12-08T07:48:47.073Z,9.13
2022-12-08T07:51:15.522Z,8.37
2022-12-08T07:53:47.207Z,9.17
2022-12-08T07:56:16.824Z,8.57
2022-12-08T07:58:45.808Z,7.27
2022-12-08T08:01:20.970Z,8.10
2022-12-08T08:03:47.786Z,8.20
2022-12-08T08:06:14.606Z,8.50
2022-12-08T08:08:41.435Z,7.87
2022-12-08T08:11:14.618Z,8.23
2022-12-08T08:13:46.089Z,9.37
2022-12-08T08:16:13.786Z,8.73
2022-12-08T08:18:40.674Z,8.43
2022-12-08T08:21:43.124Z,7.67
2022-12-08T08:23:54.536Z,8.33
2022-12-08T08:26:21.302Z,7.37
2022-12-08T08:28:48.351Z,8.20
2022-12-08T08:31:15.149Z,7.70
2022-12-08T08:33:41.696Z,8.37
2022-12-08T08:36:09.527Z,8.83
2022-12-08T08:38:40.147Z,8.40
2022-12-08T08:41:10.499Z,7.47
2022-12-08T08:43:38.537Z,7.50
2022-12-08T08:46:06.428Z,6.97
2022-12-08T08:48:33.806Z,6.80
2022-12-08T08:51:08.604Z,6.17
2022-12-08T08:53:38.771Z,6.57
2022-12-08T08:56:13.116Z,6.27
2022-12-08T08:58:40.734Z,6.60
2022-12-08T09:01:07.792Z,7.40
2022-12-08T09:03:35.465Z,6.87
2022-12-08T09:06:02.301Z,8.00
2022-12-08T09:08:30.188Z,6.70
2022-12-08T09:10:57.415Z,5.93
2022-12-08T09:13:25.917Z,6.47
2022-12-08T09:15:52.640Z,5.87
2022-12-08T09:18:19.431Z,6.23
2022-12-08T09:20:45.921Z,6.30
2022-12-08T09:23:12.537Z,5.43
2022-12-08T09:25:39.200Z,6.17
2022-12-08T09:28:05.852Z,5.43
2022-12-08T09:30:32.409Z,6.27
2022-12-08T09:32:58.977Z,5.97
2022-12-08T09:35:25.743Z,6.77
2022-12-08T09:37:52.599Z,6.23
2022-12-08T09:40:21.371Z,6.80
2022-12-08T09:42:52.123Z,6.80
2022-12-08T09:45:20.179Z,7.40
2022-12-08T09:48:10.596Z,6.60
2022-12-08T09:50:41.301Z,7.67
2022-12-08T09:53:21.516Z,7.47
2022-12-08T09:55:54.553Z,8.30
2022-12-08T09:58:36.034Z,8.47
2022-12-08T10:01:02.649Z,8.30
2022-12-08T10:03:31.248Z,8.73
2022-12-08T10:06:09.339Z,9.07
2022-12-08T10:08:55.647Z,9.60
2022-12-08T10:12:06.265Z,9.37
2022-12-08T10:14:58.110Z,10.37
2022-12-08T10:17:40.106Z,9.23
2022-12-08T10:20:18.555Z,9.37
2022-12-08T10:22:46.802Z,9.70
2022-12-08T10:25:22.508Z,9.70
2022-12-08T10:27:54.003Z,10.93
2022-12-08T10:30:21.867Z,10.20
2022-12-08T10:32:50.568Z,10.17
2022-12-08T10:35:19.258Z,10.67
2022-12-08T10:37:56.495Z,10.33
2022-12-08T10:40:23.172Z,10.73
2022-12-08T10:42:52.706Z,10.60
2022-12-08T10:45:24.455Z,12.40
2022-12-08T10:47:57.323Z,11.57
2022-12-08T10:50:28.227Z,11.33
2022-12-08T10:53:16.900Z,10.97
2022-12-08T10:55:51.317Z,11.87
2022-12-08T10:58:28.349Z,12.23
2022-12-08T11:00:58.112Z,10.97
2022-12-08T11:03:35.201Z,12.17
2022-12-08T11:06:11.097Z,12.87
2022-12-08T11:08:47.536Z,12.20
2022-12-08T11:11:14.220Z,12.30
2022-12-08T11:13:41.957Z,12.93
2022-12-08T11:16:09.071Z,13.80
2022-12-08T11:18:50.223Z,14.03
2022-12-08T11:21:19.635Z,14.80
2022-12-08T11:23:50.597Z,14.27
2022-12-08T11:26:27.345Z,13.27
2022-12-08T11:28:53.957Z,12.63
2022-12-08T11:31:36.117Z,13.33
2022-12-08T11:34:03.231Z,13.83
2022-12-08T11:36:30.636Z,14.73
2022-12-08T11:39:00.298Z,14.20
2022-12-08T11:41:38.386Z,13.93
2022-12-08T11:44:21.699Z,15.37
2022-12-08T11:46:51.516Z,16.87
2022-12-08T11:49:18.865Z,16.60
2022-12-08T11:51:59.302Z,16.67
2022-12-08T11:54:33.143Z,16.93
2022-12-08T11:57:03.106Z,17.63
2022-12-08T11:59:33.032Z,16.33
2022-12-08T12:02:01.395Z,16.10
2022-12-08T12:04:42.264Z,17.20
2022-12-08T12:07:40.054Z,16.17
2022-12-08T12:10:17.667Z,16.20
2022-12-08T12:13:17.486Z,17.47
2022-12-08T12:16:08.660Z,17.20
2022-12-08T12:18:46.277Z,17.33
2022-12-08T12:21:21.661Z,18.37
2022-12-08T12:23:53.789Z,17.80
2022-12-08T12:26:23.135Z,18.17
2022-12-08T12:28:59.584Z,18.97
2022-12-08T12:31:29.630Z,19.00
2022-12-08T12:34:05.758Z,20.13
2022-12-08T12:36:32.696Z,19.93
2022-12-08T12:39:03.852Z,19.57
2022-12-08T12:41:43.143Z,20.43
2022-12-08T12:44:24.394Z,19.03
2022-12-08T12:46:50.695Z,19.30
2022-12-08T12:49:39.230Z,19.23
2022-12-08T12:52:23.791Z,19.13
2022-12-08T12:54:50.311Z,20.07
2022-12-08T12:57:19.316Z,19.50
2022-12-08T12:59:53.242Z,19.53
2022-12-08T13:02:30.012Z,19.60
2022-12-08T13:05:09.994Z,19.23
2022-12-08T13:07:43.900Z,20.87
2022-12-08T13:10:26.855Z,20.37
2022-12-08T13:13:17.717Z,19.70
2022-12-08T13:15:58.937Z,20.27
2022-12-08T13:18:39.458Z,20.23
2022-12-08T13:21:15.093Z,21.67
2022-12-08T13:23:43.825Z,21.60
2022-12-08T13:26:21.589Z,20.77
2022-12-08T13:29:14.134Z,21.93
2022-12-08T13:31:50.144Z,21.27
2022-12-08T13:34:23.453Z,22.50
2022-12-08T13:36:59.766Z,21.73
2022-12-08T13:39:32.206Z,21.67
2022-12-08T13:42:04.014Z,22.93
2022-12-08T13:47:34.183Z,21.03
2022-12-08T13:58:40.383Z,21.63
2022-12-08T14:01:22.418Z,22.13
2022-12-08T14:04:20.427Z,21.73
2022-12-08T14:06:37.840Z,21.57
2022-12-08T14:09:10.955Z,22.30
2022-12-08T14:11:44.220Z,21.60
2022-12-08T14:14:46.007Z,22.87
2022-12-08T14:17:14.639Z,21.50
2022-12-08T14:19:44.554Z,23.30
2022-12-08T14:22:13.713Z,22.47
2022-12-08T14:24:40.765Z,23.60
2022-12-08T14:27:10.312Z,23.73
2022-12-08T14:29:43.764Z,23.80
2022-12-08T14:32:20.737Z,22.10
2022-12-08T14:35:02.046Z,22.73
2022-12-08T14:37:31.772Z,21.93
2022-12-08T14:40:22.902Z,23.07
2022-12-08T14:43:05.669Z,23.43
2022-12-08T14:45:38.072Z,23.40
2022-12-08T14:48:38.432Z,22.47
2022-12-08T14:51:20.775Z,22.80
2022-12-08T14:54:11.762Z,22.30
2022-12-08T14:56:48.628Z,22.83
2022-12-08T14:59:26.490Z,23.87
2022-12-08T15:02:15.940Z,22.03
2022-12-08T15:04:45.112Z,21.07
2022-12-08T15:07:17.398Z,22.30
2022-12-08T15:09:46.842Z,21.90
2022-12-08T15:12:13.488Z,22.87
2022-12-08T15:15:01.650Z,21.10
2022-12-08T15:17:40.055Z,21.63
2022-12-08T15:20:27.569Z,21.87
2022-12-08T15:22:58.495Z,22.77
2022-12-08T15:25:25.391Z,23.13
2022-12-08T15:27:53.367Z,22.57
2022-12-08T15:30:20.456Z,23.33
2022-12-08T15:32:47.361Z,22.90
2022-12-08T15:35:15.237Z,22.57
2022-12-08T15:37:42.792Z,22.97
2022-12-08T15:40:20.286Z,21.33
2022-12-08T15:42:47.452Z,21.40
2022-12-08T15:45:15.480Z,22.60
2022-12-08T15:47:43.232Z,22.03
2022-12-08T15:50:17.692Z,22.17
2022-12-08T15:52:44.643Z,20.80
2022-12-08T15:55:18.716Z,21.83
2022-12-08T15:58:51.108Z,22.37
2022-12-08T16:00:56.647Z,22.03
2022-12-08T16:07:04.723Z,21.33
2022-12-08T16:09:12.413Z,20.73
2022-12-08T16:12:09.842Z,21.63
2022-12-08T16:17:24.685Z,21.57
2022-12-08T16:19:51.542Z,22.23
2022-12-08T16:23:03.619Z,22.17
2022-12-08T16:25:27.323Z,21.17
2022-12-08T16:28:02.869Z,20.40
2022-12-08T16:30:36.489Z,20.87
2022-12-08T16:33:03.348Z,20.07
2022-12-08T16:35:30.528Z,21.63
2022-12-08T16:37:57.646Z,20.93
2022-12-08T16:40:24.722Z,20.10
2022-12-08T16:42:51.238Z,21.47
2022-12-08T16:45:26.946Z,20.13
2022-12-08T16:47:55.953Z,18.90
2022-12-08T16:50:26.706Z,18.90
2022-12-08T16:53:05.225Z,19.73
2022-12-08T16:55:32.533Z,19.97
2022-12-08T16:57:59.233Z,19.40
2022-12-08T17:00:27.824Z,19.40
2022-12-08T17:02:55.097Z,19.37
2022-12-08T17:05:23.915Z,18.80
2022-12-08T17:07:52.749Z,21.33
2022-12-08T17:10:25.442Z,19.53
2022-12-08T17:12:52.180Z,18.77
2022-12-08T17:15:21.312Z,18.83
2022-12-08T17:17:48.143Z,22.40
2022-12-08T17:20:17.217Z,18.00
2022-12-08T17:22:44.501Z,19.27
2022-12-08T17:25:11.525Z,17.53
2022-12-08T17:27:39.025Z,18.20
2022-12-08T17:30:08.186Z,18.80
2022-12-08T17:32:37.285Z,17.73
2022-12-08T17:35:04.271Z,17.57
2022-12-08T17:37:31.040Z,18.37
2022-12-08T17:39:57.600Z,18.70
2022-12-08T17:42:26.386Z,18.33
2022-12-08T17:44:53.633Z,17.10
2022-12-08T17:47:20.491Z,17.90
2022-12-08T17:49:46.931Z,18.03
2022-12-08T17:52:13.979Z,18.10
2022-12-08T17:54:40.692Z,18.27
2022-12-08T17:57:07.232Z,18.30
2022-12-08T17:59:35.070Z,18.13
2022-12-08T18:02:01.605Z,18.10
2022-12-08T18:04:28.680Z,17.57
2022-12-08T18:06:55.334Z,17.43
2022-12-08T18:09:21.976Z,16.70
2022-12-08T18:11:48.644Z,18.47
2022-12-08T18:14:15.631Z,17.43
2022-12-08T18:16:44.340Z,16.90
2022-12-08T18:19:12.452Z,17.10
2022-12-08T18:21:39.890Z,18.10
2022-12-08T18:24:07.270Z,17.90
2022-12-08T18:26:34.201Z,16.83
2022-12-08T18:29:00.862Z,17.40
2022-12-08T18:31:27.734Z,17.37
2022-12-08T18:33:54.426Z,17.30
2022-12-08T18:36:23.593Z,16.20
2022-12-08T18:38:50.359Z,16.13
2022-12-08T18:41:20.698Z,15.93
2022-12-08T18:43:47.316Z,16.47
2022-12-08T18:46:14.731Z,16.93
2022-12-08T18:48:43.654Z,16.00
2022-12-08T18:51:18.687Z,17.17
2022-12-08T18:53:46.454Z,17.07
2022-12-08T18:56:42.050Z,16.40
2022-12-08T18:59:12.079Z,17.73
2022-12-08T19:01:41.213Z,16.60
2022-12-08T19:04:27.883Z,16.90
2022-12-08T19:06:55.550Z,15.47
2022-12-08T19:09:23.025Z,17.10
2022-12-08T19:11:49.666Z,16.30
2022-12-08T19:14:16.607Z,16.83
2022-12-08T19:16:43.182Z,17.90
2022-12-08T19:19:09.758Z,18.97
2022-12-08T19:21:42.919Z,18.13
2022-12-08T19:24:12.577Z,18.43
2022-12-08T19:26:39.417Z,17.13
2022-12-08T19:29:05.995Z,18.43
2022-12-08T19:31:32.602Z,18.50
2022-12-08T19:33:59.271Z,18.90
2022-12-08T19:36:27.479Z,18.57
2022-12-08T19:39:12.734Z,18.57
2022-12-08T19:41:57.975Z,18.40
2022-12-08T19:44:46.294Z,19.30
2022-12-08T19:47:13.201Z,18.57
2022-12-08T19:49:39.801Z,19.00
2022-12-08T19:52:06.713Z,20.07
2022-12-08T19:54:34.003Z,19.27
2022-12-08T19:57:00.849Z,19.57
2022-12-08T19:59:30.220Z,19.27
2022-12-08T20:02:00.271Z,19.60
2022-12-08T20:04:27.770Z,19.43
2022-12-08T20:06:55.997Z,19.70
2022-12-08T20:09:23.668Z,20.57
2022-12-08T20:11:50.803Z,19.33
2022-12-08T20:14:18.311Z,18.23
2022-12-08T20:16:44.999Z,19.67
2022-12-08T20:19:11.710Z,18.83
2022-12-08T20:21:39.516Z,20.03
2022-12-08T20:24:06.459Z,19.20
2022-12-08T20:26:32.900Z,18.37
2022-12-08T20:28:59.464Z,18.53
2022-12-08T20:31:28.407Z,17.87
2022-12-08T20:33:55.236Z,18.47
2022-12-08T20:36:22.306Z,18.60
2022-12-08T20:38:50.954Z,19.07
2022-12-08T20:41:18.734Z,17.80
2022-12-08T20:43:46.618Z,18.90
2022-12-08T20:46:15.238Z,18.20
2022-12-08T20:48:42.630Z,19.33
2022-12-08T20:51:12.498Z,19.20
2022-12-08T20:53:39.147Z,19.10
2022-12-08T20:56:05.780Z,19.27
2022-12-08T20:58:32.451Z,18.83
2022-12-08T21:00:59.077Z,19.97
2022-12-08T21:03:26.896Z,19.90
2022-12-08T21:05:53.627Z,20.10
2022-12-08T21:08:20.387Z,19.67
2022-12-08T21:10:53.482Z,19.30
2022-12-08T21:13:20.026Z,19.10
2022-12-08T21:15:47.082Z,20.13
2022-12-08T21:18:15.064Z,18.73
2022-12-08T21:20:41.683Z,20.33
2022-12-08T21:23:08.599Z,20.80
2022-12-08T21:25:35.556Z,19.40
2022-12-08T21:28:02.204Z,19.83
2022-12-08T21:30:28.660Z,19.63
2022-12-08T21:32:55.529Z,20.13
2022-12-08T21:35:22.168Z,20.43
2022-12-08T21:37:48.941Z,20.10
2022-12-08T21:40:15.673Z,23.30
2022-12-08T21:42:45.159Z,22.33
2022-12-08T21:45:17.276Z,22.10
2022-12-08T21:47:44.684Z,21.07
2022-12-08T21:50:12.321Z,21.63
2022-12-08T21:52:40.148Z,19.83
2022-12-08T21:55:07.958Z,21.10
2022-12-08T21:57:35.568Z,21.03
2022-12-08T22:00:02.292Z,20.87
2022-12-08T22:02:28.991Z,19.60
2022-12-08T22:04:56.046Z,19.83
2022-12-08T22:07:22.792Z,21.20
2022-12-08T22:09:49.436Z,21.20
2022-12-08T22:12:17.023Z,21.47
2022-12-08T22:14:44.185Z,19.77
2022-12-08T22:17:10.697Z,20.70
2022-12-08T22:19:37.821Z,20.30
2022-12-08T22:22:04.401Z,21.23
2022-12-08T22:24:31.340Z,21.60
2022-12-08T22:26:57.946Z,20.57
2022-12-08T22:29:24.570Z,20.53
2022-12-08T22:31:51.186Z,19.97
2022-12-08T22:34:18.137Z,20.73
2022-12-08T22:36:44.823Z,21.47
2022-12-08T22:39:12.354Z,22.23
2022-12-08T22:41:39.413Z,20.60
2022-12-08T22:44:06.960Z,21.37
2022-12-08T22:46:33.836Z,20.73
2022-12-08T22:49:00.606Z,20.53
2022-12-08T22:51:27.246Z,21.17
2022-12-08T22:53:53.811Z,22.10
2022-12-08T22:56:20.681Z,21.67
2022-12-08T22:58:48.269Z,21.00
2022-12-08T23:01:23.058Z,20.73
2022-12-08T23:03:49.695Z,20.53
2022-12-08T23:06:16.527Z,22.07
2022-12-08T23:08:43.952Z,21.13
2022-12-08T23:11:10.493Z,21.43
2022-12-08T23:13:37.436Z,21.50
2022-12-08T23:16:04.119Z,22.10
2022-12-08T23:18:30.560Z,22.53
2022-12-08T23:21:03.393Z,22.67
2022-12-08T23:23:29.815Z,22.77
2022-12-08T23:25:56.537Z,22.57
2022-12-08T23:28:23.099Z,22.77
2022-12-08T23:30:49.650Z,24.13
2022-12-08T23:33:16.501Z,22.87
2022-12-08T23:35:43.343Z,23.33
2022-12-08T23:38:09.879Z,22.93
2022-12-08T23:40:36.557Z,22.27
2022-12-08T23:43:05.219Z,23.63
2022-12-08T23:45:31.905Z,22.60
2022-12-08T23:47:58.398Z,23.77
2022-12-08T23:50:24.912Z,22.47
2022-12-08T23:52:51.539Z,24.03
2022-12-08T23:55:17.969Z,24.63
2022-12-08T23:57:44.572Z,24.43
